Time;durP1;ratioP1;P1;durP2;ratioP2;P2;SDS_P1;SDS_P2;PMS_P1;PMS_P2;Temp;Humidity;BMP_temperature;BMP_pressure;BME280_temperature;BME280_humidity;BME280_pressure;Samples;Min_cycle;Max_cycle;Signal;HPM_P1;HPM_P2
2023/06/26 00:01:04;;;;;;;9.65;6.80;;;21.40;99.90;;;;;;5181874;27;20077;-88
2023/06/26 00:03:32;;;;;;;9.25;6.40;;;21.30;99.90;;;;;;5199353;27;20042;-88
2023/06/26 00:06:00;;;;;;;8.63;6.45;;;21.30;99.90;;;;;;5182367;27;20070;-88
2023/06/26 00:08:28;;;;;;;10.80;7.10;;;21.30;99.90;;;;;;5155490;27;20038;-88
2023/06/26 00:10:54;;;;;;;9.45;7.25;;;21.30;99.90;;;;;;5179848;27;20533;-89
2023/06/26 00:13:22;;;;;;;8.60;6.32;;;21.30;99.90;;;;;;5159324;27;20038;-88
2023/06/26 00:15:50;;;;;;;10.32;6.72;;;21.20;99.90;;;;;;5160864;27;20045;-88
2023/06/26 00:18:17;;;;;;;9.13;7.03;;;21.20;99.90;;;;;;5157854;27;20041;-88
2023/06/26 00:20:44;;;;;;;9.80;6.95;;;21.20;99.90;;;;;;5184686;27;20597;-88
2023/06/26 00:23:12;;;;;;;8.20;6.57;;;21.20;99.90;;;;;;5143506;27;20130;-88
2023/06/26 00:25:39;;;;;;;8.93;7.28;;;21.20;99.90;;;;;;5177793;27;20057;-89
2023/06/26 00:28:06;;;;;;;10.13;7.05;;;21.30;99.90;;;;;;5144152;27;20038;-89
2023/06/26 00:30:32;;;;;;;9.95;7.15;;;21.30;99.90;;;;;;5142954;27;20042;-88
2023/06/26 00:32:59;;;;;;;11.32;7.03;;;21.30;99.90;;;;;;5160927;27;20038;-88
2023/06/26 00:35:26;;;;;;;10.15;7.00;;;21.30;99.90;;;;;;5160642;27;20121;-88
2023/06/26 00:37:52;;;;;;;10.75;6.88;;;21.30;99.90;;;;;;5176513;27;20041;-88
2023/06/26 00:40:19;;;;;;;9.35;6.60;;;21.20;99.90;;;;;;5164030;27;20030;-88
2023/06/26 00:42:46;;;;;;;10.50;7.70;;;21.20;99.90;;;;;;5160092;27;20038;-88
2023/06/26 00:45:13;;;;;;;9.00;7.13;;;21.20;99.90;;;;;;5160501;27;20482;-89
2023/06/26 00:47:39;;;;;;;9.90;7.30;;;21.20;99.90;;;;;;5142910;27;20501;-88
2023/06/26 00:50:06;;;;;;;11.57;8.10;;;21.20;99.90;;;;;;5160447;27;20037;-89
2023/06/26 00:52:33;;;;;;;9.48;7.22;;;21.20;99.90;;;;;;5139182;27;20090;-89
2023/06/26 00:55:00;;;;;;;10.70;7.65;;;21.20;99.90;;;;;;5140025;27;20034;-89
2023/06/26 00:57:27;;;;;;;10.32;7.57;;;21.20;99.90;;;;;;5156433;27;20045;-88
2023/06/26 00:59:54;;;;;;;9.32;7.38;;;21.20;99.90;;;;;;5139238;27;20035;-89
2023/06/26 01:02:21;;;;;;;10.15;7.40;;;21.20;99.90;;;;;;5122411;27;20057;-88
2023/06/26 01:04:52;;;;;;;8.73;6.72;;;21.20;99.90;;;;;;5156484;27;20041;-88
2023/06/26 01:07:21;;;;;;;11.05;6.95;;;21.20;99.90;;;;;;5122725;27;20042;-88
2023/06/26 01:09:48;;;;;;;9.57;7.43;;;21.20;99.90;;;;;;5139243;27;20126;-89
2023/06/26 01:12:15;;;;;;;12.05;7.35;;;21.10;99.90;;;;;;5139473;27;20045;-89
2023/06/26 01:14:42;;;;;;;10.05;7.40;;;21.10;99.90;;;;;;5155725;27;20039;-88
2023/06/26 01:17:14;;;;;;;12.20;7.32;;;21.00;99.90;;;;;;5157253;27;20103;-89
2023/06/26 01:19:42;;;;;;;11.20;7.45;;;21.00;99.90;;;;;;5176764;27;20044;-88
2023/06/26 01:22:27;;;;;;;9.20;7.57;;;21.00;99.90;;;;;;5176533;27;20176;-89
2023/06/26 01:25:20;;;;;;;11.07;7.05;;;20.90;99.90;;;;;;5176281;27;20034;-89
2023/06/26 01:27:50;;;;;;;10.95;8.57;;;20.90;99.90;;;;;;5176860;27;20121;-88
2023/06/26 01:30:17;;;;;;;10.02;7.35;;;20.90;99.90;;;;;;5177349;27;20034;-89
2023/06/26 01:32:45;;;;;;;9.55;7.30;;;20.90;99.90;;;;;;5176493;27;20082;-88
2023/06/26 01:35:13;;;;;;;10.35;7.63;;;20.80;99.90;;;;;;5142486;27;20034;-89
2023/06/26 01:37:40;;;;;;;9.30;7.60;;;20.80;99.90;;;;;;5159243;27;20038;-89
2023/06/26 01:40:07;;;;;;;10.10;8.18;;;20.90;99.90;;;;;;5142481;27;20030;-89
2023/06/26 01:42:34;;;;;;;13.38;7.95;;;20.90;99.90;;;;;;5158641;27;20078;-89
2023/06/26 01:45:14;;;;;;;10.50;8.05;;;20.80;99.90;;;;;;5159504;27;20049;-88
2023/06/26 01:47:46;;;;;;;10.82;8.07;;;20.80;99.90;;;;;;5176245;27;20557;-88
2023/06/26 01:50:28;;;;;;;10.77;8.32;;;20.80;99.90;;;;;;5176477;27;20512;-88
2023/06/26 01:53:13;;;;;;;10.07;7.72;;;20.70;99.90;;;;;;5175882;27;20038;-89
2023/06/26 01:56:07;;;;;;;10.73;7.75;;;20.70;99.90;;;;;;5193589;27;20485;-89
2023/06/26 01:58:37;;;;;;;10.23;8.25;;;20.70;99.90;;;;;;5168718;27;20481;-88
2023/06/26 02:01:04;;;;;;;9.82;7.38;;;20.70;99.90;;;;;;5213998;27;20034;-89
2023/06/26 02:03:31;;;;;;;9.98;7.75;;;20.70;99.90;;;;;;5162208;27;20037;-89
2023/06/26 02:05:57;;;;;;;10.23;8.00;;;20.70;99.90;;;;;;5179479;27;20124;-89
2023/06/26 02:08:24;;;;;;;12.15;8.35;;;20.70;99.90;;;;;;5162628;27;20037;-88
2023/06/26 02:10:51;;;;;;;12.45;8.40;;;20.60;99.90;;;;;;5162235;27;20137;-88
2023/06/26 02:13:17;;;;;;;12.77;8.50;;;20.60;99.90;;;;;;5179682;27;20084;-88
2023/06/26 02:15:44;;;;;;;12.40;7.88;;;20.70;99.90;;;;;;5162434;27;20038;-88
2023/06/26 02:18:11;;;;;;;11.45;8.27;;;20.70;99.90;;;;;;5162695;27;20509;-88
2023/06/26 02:20:37;;;;;;;10.98;8.02;;;20.70;99.90;;;;;;5179300;27;20097;-88
2023/06/26 02:23:04;;;;;;;11.23;8.15;;;20.70;99.90;;;;;;5160278;27;20120;-88
2023/06/26 02:25:31;;;;;;;14.00;8.30;;;20.70;99.90;;;;;;5158724;27;20038;-88
2023/06/26 02:27:57;;;;;;;10.68;8.27;;;20.70;99.90;;;;;;5142145;27;20035;-88
2023/06/26 02:30:24;;;;;;;11.73;8.50;;;20.80;99.90;;;;;;5159165;27;20069;-88
2023/06/26 02:32:51;;;;;;;11.68;8.23;;;20.80;99.90;;;;;;5158713;27;20046;-89
2023/06/26 02:35:17;;;;;;;9.35;7.97;;;20.80;99.90;;;;;;5143090;27;20057;-88
2023/06/26 02:37:44;;;;;;;10.95;8.40;;;20.80;99.90;;;;;;5146469;27;20050;-89
2023/06/26 02:40:11;;;;;;;13.10;9.20;;;20.80;99.90;;;;;;5146488;27;20065;-88
2023/06/26 02:42:38;;;;;;;10.32;8.55;;;20.80;99.90;;;;;;5162802;27;20398;-88
2023/06/26 02:45:05;;;;;;;11.15;8.82;;;20.80;99.90;;;;;;5179603;27;20098;-87
2023/06/26 02:47:32;;;;;;;11.23;8.52;;;20.70;99.90;;;;;;5179289;27;20034;-87
2023/06/26 02:49:58;;;;;;;10.07;7.90;;;20.70;99.90;;;;;;5145606;27;20035;-87
2023/06/26 02:52:25;;;;;;;13.35;9.10;;;20.70;99.90;;;;;;5145356;27;20049;-87
2023/06/26 02:54:52;;;;;;;10.88;8.63;;;20.80;99.90;;;;;;5141359;27;20046;-87
2023/06/26 02:57:18;;;;;;;10.90;8.63;;;20.80;99.90;;;;;;5141382;27;20042;-87
2023/06/26 02:59:45;;;;;;;14.15;9.10;;;20.80;99.90;;;;;;5141423;27;20479;-87
2023/06/26 03:02:12;;;;;;;13.18;9.40;;;20.70;99.90;;;;;;5159131;27;20490;-87
2023/06/26 03:04:39;;;;;;;10.65;8.75;;;20.70;99.90;;;;;;5143573;27;20041;-87
2023/06/26 03:07:05;;;;;;;11.85;9.10;;;20.70;99.90;;;;;;5161959;27;20057;-87
2023/06/26 03:09:32;;;;;;;11.55;9.20;;;20.70;99.90;;;;;;5162148;27;20195;-87
2023/06/26 03:11:59;;;;;;;12.82;9.30;;;20.70;99.90;;;;;;5144380;27;20401;-87
2023/06/26 03:14:26;;;;;;;12.57;9.38;;;20.80;99.90;;;;;;5141030;27;20502;-88
2023/06/26 03:16:56;;;;;;;11.15;8.57;;;20.70;99.90;;;;;;5177494;27;20117;-87
2023/06/26 03:19:23;;;;;;;13.73;9.13;;;20.80;99.90;;;;;;5145664;27;20046;-87
2023/06/26 03:21:50;;;;;;;11.20;9.20;;;20.80;99.90;;;;;;5153459;27;20182;-88
2023/06/26 03:24:17;;;;;;;11.45;8.90;;;20.70;99.90;;;;;;5182972;27;20037;-87
2023/06/26 03:26:44;;;;;;;10.57;8.43;;;20.70;99.90;;;;;;5166936;27;20045;-87
2023/06/26 03:29:11;;;;;;;10.95;8.27;;;20.80;99.90;;;;;;5144652;27;20037;-87
2023/06/26 03:31:37;;;;;;;11.77;7.43;;;20.70;99.90;;;;;;5161690;27;20170;-87
2023/06/26 03:34:04;;;;;;;11.50;8.55;;;20.70;99.90;;;;;;5144581;27;20050;-87
2023/06/26 03:36:31;;;;;;;12.55;8.73;;;20.80;99.90;;;;;;5144305;27;20038;-87
2023/06/26 03:38:57;;;;;;;10.80;8.18;;;20.80;99.90;;;;;;5157802;27;20123;-87
2023/06/26 03:41:24;;;;;;;14.25;8.10;;;20.70;99.90;;;;;;5140740;27;20055;-87
2023/06/26 03:43:51;;;;;;;11.88;8.23;;;20.70;99.90;;;;;;5157455;27;20034;-87
2023/06/26 03:46:17;;;;;;;9.73;7.25;;;20.70;99.90;;;;;;5178314;27;20033;-87
2023/06/26 03:48:44;;;;;;;12.05;8.45;;;20.70;99.90;;;;;;5143953;27;20152;-87
2023/06/26 03:51:12;;;;;;;11.23;8.02;;;20.70;99.90;;;;;;5144658;27;20125;-87
2023/06/26 03:53:38;;;;;;;11.85;8.52;;;20.70;99.90;;;;;;5144347;27;20077;-87
2023/06/26 03:56:05;;;;;;;11.35;8.93;;;20.70;99.90;;;;;;5143987;27;20074;-87
2023/06/26 03:58:32;;;;;;;12.55;8.55;;;20.80;99.90;;;;;;5140207;27;20095;-87
2023/06/26 04:00:58;;;;;;;12.50;8.90;;;20.70;99.90;;;;;;5122904;27;20042;-87
2023/06/26 04:03:25;;;;;;;12.05;8.07;;;20.80;99.90;;;;;;5123393;27;20038;-87
2023/06/26 04:05:52;;;;;;;11.38;8.73;;;20.80;99.90;;;;;;5140345;27;20031;-87
2023/06/26 04:08:20;;;;;;;11.18;8.20;;;20.80;99.90;;;;;;5189774;27;20056;-87
2023/06/26 04:10:47;;;;;;;10.93;8.27;;;20.80;99.90;;;;;;5160856;27;20485;-87
2023/06/26 04:13:14;;;;;;;12.55;8.57;;;20.90;99.90;;;;;;5178314;27;20038;-88
2023/06/26 04:15:41;;;;;;;11.45;8.60;;;20.90;99.90;;;;;;5161076;27;20042;-87
2023/06/26 04:18:08;;;;;;;11.52;8.40;;;21.00;99.90;;;;;;5143580;27;20043;-87
2023/06/26 04:20:40;;;;;;;11.95;9.00;;;20.90;99.90;;;;;;5143755;27;20523;-88
2023/06/26 04:23:07;;;;;;;11.75;8.20;;;21.00;99.90;;;;;;5177199;27;20121;-88
2023/06/26 04:25:34;;;;;;;12.13;9.00;;;21.00;99.90;;;;;;5161144;27;20086;-88
2023/06/26 04:28:00;;;;;;;12.52;8.73;;;21.00;99.90;;;;;;5139880;27;20038;-87
2023/06/26 04:30:27;;;;;;;11.38;8.40;;;21.00;99.90;;;;;;5139911;27;20492;-87
2023/06/26 04:32:54;;;;;;;10.45;7.82;;;21.00;99.90;;;;;;5139547;27;20490;-87
2023/06/26 04:35:21;;;;;;;11.45;8.73;;;21.10;99.90;;;;;;5140052;27;20047;-87
2023/06/26 04:37:47;;;;;;;11.85;8.52;;;21.10;99.90;;;;;;5142121;27;20735;-87
2023/06/26 04:40:14;;;;;;;11.88;8.50;;;21.00;99.90;;;;;;5160069;27;20042;-87
2023/06/26 04:42:41;;;;;;;13.27;8.70;;;21.10;99.90;;;;;;5160638;27;20050;-87
2023/06/26 04:45:08;;;;;;;11.30;8.63;;;21.00;99.90;;;;;;5160185;27;20042;-87
2023/06/26 04:47:34;;;;;;;13.98;9.07;;;21.10;99.90;;;;;;5159913;27;20121;-87
2023/06/26 04:50:01;;;;;;;10.95;8.20;;;21.00;99.90;;;;;;5156385;27;20039;-87
2023/06/26 04:52:27;;;;;;;12.65;8.35;;;21.10;99.90;;;;;;5122533;27;20038;-88
2023/06/26 04:54:54;;;;;;;11.82;8.60;;;21.00;99.90;;;;;;5122524;27;20034;-87
2023/06/26 04:57:21;;;;;;;12.80;8.55;;;21.00;99.90;;;;;;5139406;27;20129;-88
2023/06/26 04:59:47;;;;;;;13.07;8.10;;;21.00;99.90;;;;;;5128415;27;20042;-88
2023/06/26 05:02:15;;;;;;;11.75;7.93;;;21.10;99.90;;;;;;5139078;27;20494;-88
2023/06/26 05:04:42;;;;;;;13.02;8.63;;;21.10;99.90;;;;;;5122175;27;20866;-87
2023/06/26 05:07:09;;;;;;;10.82;8.65;;;21.10;99.90;;;;;;5122070;27;20054;-87
2023/06/26 05:09:35;;;;;;;10.25;8.30;;;21.10;99.90;;;;;;5139215;27;20034;-87
2023/06/26 05:12:03;;;;;;;10.38;7.85;;;21.20;99.90;;;;;;5121639;27;20038;-87
2023/06/26 05:14:29;;;;;;;13.15;7.97;;;21.30;99.90;;;;;;5138808;27;20039;-86
2023/06/26 05:16:56;;;;;;;13.45;7.70;;;21.40;99.90;;;;;;5155433;27;20387;-87
2023/06/26 05:19:23;;;;;;;10.70;6.95;;;21.40;99.90;;;;;;5139413;27;20042;-87
2023/06/26 05:21:50;;;;;;;11.52;7.55;;;21.40;99.90;;;;;;5142141;27;20078;-87
2023/06/26 05:24:19;;;;;;;10.13;6.65;;;21.50;99.90;;;;;;5159310;27;20042;-87
2023/06/26 05:26:46;;;;;;;11.07;6.45;;;21.60;99.90;;;;;;5176499;27;20095;-87
2023/06/26 05:29:13;;;;;;;10.27;6.70;;;21.70;99.90;;;;;;5176259;27;20034;-87
2023/06/26 05:31:41;;;;;;;9.45;6.32;;;21.70;99.90;;;;;;5142274;27;20046;-87
2023/06/26 05:34:10;;;;;;;11.70;6.20;;;21.80;99.90;;;;;;5175810;27;20064;-87
2023/06/26 05:36:38;;;;;;;12.80;6.10;;;21.80;99.90;;;;;;5176562;27;20031;-87
2023/06/26 05:39:05;;;;;;;11.15;6.38;;;21.70;99.90;;;;;;5141825;27;20037;-87
2023/06/26 05:41:32;;;;;;;9.57;6.28;;;21.80;99.90;;;;;;5151478;27;20059;-88
2023/06/26 05:43:59;;;;;;;13.10;6.10;;;21.80;99.90;;;;;;5184615;27;20140;-87
2023/06/26 05:46:26;;;;;;;9.95;6.10;;;21.80;99.90;;;;;;5134165;27;20035;-88
2023/06/26 05:48:52;;;;;;;11.02;5.93;;;21.90;99.90;;;;;;5117675;27;20144;-88
2023/06/26 05:51:19;;;;;;;9.13;5.95;;;21.90;99.90;;;;;;5134710;27;20031;-88
2023/06/26 05:53:46;;;;;;;10.25;6.00;;;22.00;99.90;;;;;;5135713;27;20046;-87
2023/06/26 05:56:13;;;;;;;10.45;6.45;;;22.00;99.90;;;;;;5164675;27;20127;-87
2023/06/26 05:58:42;;;;;;;9.70;5.88;;;22.00;99.90;;;;;;5154954;27;20042;-87
2023/06/26 06:01:08;;;;;;;13.88;7.38;;;22.10;99.90;;;;;;5171450;27;20038;-87
2023/06/26 06:03:35;;;;;;;13.50;6.75;;;21.90;99.90;;;;;;5137706;27;20039;-89
2023/06/26 06:06:02;;;;;;;16.02;7.35;;;21.90;99.90;;;;;;5137531;27;21931;-84
2023/06/26 06:08:29;;;;;;;13.48;6.85;;;21.60;99.90;;;;;;5154085;27;20039;-80
2023/06/26 06:10:55;;;;;;;16.42;7.38;;;21.60;99.90;;;;;;5136479;27;20536;-84
2023/06/26 06:13:22;;;;;;;17.08;7.20;;;21.50;99.90;;;;;;5136877;27;20043;-85
2023/06/26 06:15:49;;;;;;;14.27;7.45;;;21.40;99.90;;;;;;5171439;27;20114;-85
2023/06/26 06:18:16;;;;;;;14.00;7.93;;;21.40;99.90;;;;;;5150255;28;20049;-85
2023/06/26 06:20:43;;;;;;;12.82;7.18;;;21.30;99.90;;;;;;5116667;28;20046;-85
2023/06/26 06:23:10;;;;;;;14.73;6.95;;;21.20;99.90;;;;;;5116585;28;20566;-85
2023/06/26 06:25:37;;;;;;;12.05;6.47;;;21.10;99.90;;;;;;5116870;28;20031;-85
2023/06/26 06:28:05;;;;;;;12.65;5.78;;;21.10;99.90;;;;;;5164329;27;20121;-85
2023/06/26 06:30:31;;;;;;;14.18;5.38;;;21.00;99.90;;;;;;5171091;27;20125;-85
2023/06/26 06:32:58;;;;;;;10.35;4.78;;;20.90;99.90;;;;;;5154116;27;20125;-85
2023/06/26 06:35:25;;;;;;;9.50;4.82;;;20.90;99.90;;;;;;5153739;27;20052;-85
2023/06/26 06:37:51;;;;;;;14.65;5.20;;;20.80;99.90;;;;;;5137027;27;20046;-85
2023/06/26 06:40:18;;;;;;;9.40;4.55;;;20.70;99.90;;;;;;5136423;27;20041;-84
2023/06/26 06:42:45;;;;;;;12.07;4.95;;;20.60;99.90;;;;;;5136760;27;20122;-84
2023/06/26 06:45:11;;;;;;;11.48;4.63;;;20.70;99.90;;;;;;5136788;27;20497;-85
2023/06/26 06:47:38;;;;;;;11.68;4.40;;;20.60;99.90;;;;;;5157708;27;20099;-84
2023/06/26 06:50:08;;;;;;;8.65;4.13;;;20.70;99.90;;;;;;5153868;27;20117;-86
2023/06/26 06:52:39;;;;;;;10.80;3.95;;;20.80;99.90;;;;;;5120443;27;20042;-85
2023/06/26 06:55:08;;;;;;;11.38;3.35;;;20.80;99.90;;;;;;5137619;27;20233;-85
2023/06/26 06:57:37;;;;;;;10.48;3.47;;;20.80;99.90;;;;;;5121210;27;20047;-84
2023/06/26 07:00:13;;;;;;;8.38;3.33;;;20.80;99.90;;;;;;5154982;27;20062;-85
2023/06/26 07:02:43;;;;;;;13.63;3.97;;;21.00;99.90;;;;;;5137470;27;20050;-85
2023/06/26 07:05:11;;;;;;;10.68;3.10;;;21.10;99.90;;;;;;5137088;27;20410;-83
2023/06/26 07:07:38;;;;;;;11.00;2.92;;;21.10;99.90;;;;;;5136533;27;20035;-85
2023/06/26 07:10:08;;;;;;;8.68;3.30;;;21.00;99.90;;;;;;5168506;27;20121;-85
2023/06/26 07:12:35;;;;;;;9.63;3.15;;;21.00;99.90;;;;;;5153765;27;20043;-84
2023/06/26 07:15:04;;;;;;;9.80;3.03;;;21.10;99.90;;;;;;5153836;27;20050;-85
2023/06/26 07:17:32;;;;;;;9.27;2.70;;;21.20;99.90;;;;;;5153683;27;20039;-85
2023/06/26 07:20:00;;;;;;;6.45;2.55;;;21.30;99.90;;;;;;5153503;27;20038;-85
2023/06/26 07:22:27;;;;;;;7.93;2.50;;;21.40;99.90;;;;;;5139341;27;20035;-86
2023/06/26 07:24:53;;;;;;;10.73;2.85;;;21.50;99.90;;;;;;5140611;27;20046;-86
2023/06/26 07:27:20;;;;;;;8.20;2.45;;;21.50;99.90;;;;;;5140405;27;20063;-85
2023/06/26 07:29:47;;;;;;;12.60;2.85;;;21.40;99.90;;;;;;5160856;27;20034;-86
2023/06/26 07:32:14;;;;;;;10.20;2.67;;;21.50;99.90;;;;;;5144012;27;20167;-85
2023/06/26 07:34:40;;;;;;;7.20;2.50;;;21.60;99.90;;;;;;5137247;27;20099;-85
2023/06/26 07:37:07;;;;;;;11.13;2.67;;;21.60;99.90;;;;;;5142058;27;20044;-85
2023/06/26 07:39:34;;;;;;;8.32;2.70;;;21.60;99.90;;;;;;5156424;27;20034;-85
2023/06/26 07:42:01;;;;;;;9.55;2.58;;;21.70;99.90;;;;;;5148660;27;20106;-85
2023/06/26 07:44:27;;;;;;;6.68;2.03;;;21.80;99.90;;;;;;5159843;27;20045;-84
2023/06/26 07:46:54;;;;;;;8.32;2.08;;;22.00;99.90;;;;;;5159235;27;20034;-85
2023/06/26 07:49:21;;;;;;;6.25;2.00;;;22.10;99.90;;;;;;5160039;27;20046;-85
2023/06/26 07:51:48;;;;;;;5.97;1.88;;;22.20;99.90;;;;;;5159998;27;20034;-85
2023/06/26 07:54:14;;;;;;;7.55;1.70;;;22.10;99.90;;;;;;5142747;27;20069;-85
2023/06/26 07:57:00;;;;;;;6.80;1.70;;;22.20;99.90;;;;;;5159817;27;20046;-85
2023/06/26 07:59:27;;;;;;;;;;;22.20;99.90;;;;;;5194401;27;20063;-84
2023/06/26 08:01:56;;;;;;;10.45;2.30;;;22.40;99.90;;;;;;5177251;27;19914;-84
2023/06/26 08:04:29;;;;;;;6.00;1.95;;;22.50;99.90;;;;;;5176669;27;20045;-85
2023/06/26 08:06:57;;;;;;;4.78;1.70;;;22.60;99.90;;;;;;5193952;27;20490;-85
2023/06/26 08:09:26;;;;;;;4.68;2.00;;;22.70;99.90;;;;;;5159059;27;20042;-85
2023/06/26 08:11:53;;;;;;;7.22;1.70;;;22.60;99.90;;;;;;5159541;27;20065;-85
2023/06/26 08:14:20;;;;;;;5.88;1.90;;;22.60;99.90;;;;;;5159656;27;20562;-85
2023/06/26 08:16:47;;;;;;;7.85;1.75;;;22.70;99.90;;;;;;5176420;27;20046;-85
2023/06/26 08:19:15;;;;;;;7.05;1.70;;;22.70;99.90;;;;;;5159708;27;20041;-85
2023/06/26 08:21:43;;;;;;;4.90;1.55;;;22.70;99.90;;;;;;5175907;27;20065;-85
2023/06/26 08:24:10;;;;;;;4.30;1.55;;;22.70;99.90;;;;;;5176496;27;20026;-85
2023/06/26 08:26:37;;;;;;;5.18;1.50;;;22.50;99.90;;;;;;5179199;27;20685;-84
2023/06/26 08:29:10;;;;;;;4.40;1.70;;;22.70;99.90;;;;;;5164808;27;20034;-85
2023/06/26 08:31:38;;;;;;;4.57;1.63;;;22.80;99.90;;;;;;5140281;27;20078;-84
2023/06/26 08:34:05;;;;;;;6.85;1.60;;;22.60;99.90;;;;;;5137953;27;20127;-85
2023/06/26 08:36:32;;;;;;;7.30;1.70;;;22.30;99.90;;;;;;5154969;27;20042;-84
2023/06/26 08:38:59;;;;;;;5.65;1.65;;;22.30;99.90;;;;;;5142707;27;20386;-85
2023/06/26 08:41:26;;;;;;;7.28;1.60;;;22.30;99.90;;;;;;5138845;27;20047;-85
2023/06/26 08:43:52;;;;;;;5.88;1.70;;;22.50;99.90;;;;;;5159421;27;20073;-85
2023/06/26 08:46:19;;;;;;;5.30;1.60;;;22.40;99.90;;;;;;5141971;27;20038;-85
2023/06/26 08:48:56;;;;;;;3.67;1.40;;;22.20;99.90;;;;;;5159143;27;20067;-86
2023/06/26 08:51:28;;;;;;;10.10;1.42;;;22.20;99.90;;;;;;5158450;27;20063;-85
2023/06/26 08:54:05;;;;;;;5.50;1.60;;;22.10;99.90;;;;;;5159127;27;20125;-86
2023/06/26 08:56:44;;;;;;;4.80;1.58;;;22.10;99.90;;;;;;5192684;27;20501;-85
2023/06/26 08:59:12;;;;;;;9.68;1.83;;;22.10;99.90;;;;;;5175286;27;20042;-85
2023/06/26 09:01:40;;;;;;;4.63;1.65;;;22.20;99.90;;;;;;5158855;27;20034;-85
2023/06/26 09:04:07;;;;;;;4.43;1.30;;;22.40;99.90;;;;;;5175720;27;20034;-85
2023/06/26 09:06:34;;;;;;;4.95;1.40;;;22.40;99.90;;;;;;5175138;27;20108;-85
2023/06/26 09:09:00;;;;;;;7.07;1.60;;;22.30;99.90;;;;;;5158520;27;20034;-84
2023/06/26 09:11:27;;;;;;;4.10;1.60;;;22.20;99.90;;;;;;5158758;27;20066;-85
2023/06/26 09:13:55;;;;;;;5.32;1.70;;;22.20;99.90;;;;;;5157809;27;20071;-85
2023/06/26 09:16:26;;;;;;;2.72;1.15;;;22.10;99.90;;;;;;5158372;27;20738;-85
2023/06/26 09:18:53;;;;;;;5.03;1.52;;;22.20;99.90;;;;;;5175168;27;20060;-85
2023/06/26 09:21:21;;;;;;;4.60;1.40;;;22.20;99.90;;;;;;5157901;27;20121;-85
2023/06/26 09:23:49;;;;;;;5.03;1.48;;;22.30;99.90;;;;;;5158580;27;20034;-84
2023/06/26 09:26:16;;;;;;;4.82;1.58;;;22.30;99.90;;;;;;5158578;27;20062;-85
2023/06/26 09:28:43;;;;;;;4.70;1.55;;;22.30;99.90;;;;;;5174622;27;20082;-85
2023/06/26 09:31:10;;;;;;;5.65;1.50;;;22.30;99.90;;;;;;5175207;27;20038;-85
2023/06/26 09:33:38;;;;;;;5.38;1.73;;;22.20;99.90;;;;;;5140636;27;20048;-85
2023/06/26 09:36:06;;;;;;;5.22;1.80;;;22.10;99.90;;;;;;5141236;27;20034;-84
2023/06/26 09:38:35;;;;;;;6.22;1.70;;;22.30;99.90;;;;;;5157801;27;20506;-85
2023/06/26 09:41:05;;;;;;;4.80;1.75;;;22.20;99.90;;;;;;5174558;27;20058;-85
2023/06/26 09:43:32;;;;;;;4.63;1.60;;;22.00;99.90;;;;;;5157791;27;20098;-85
2023/06/26 09:46:02;;;;;;;6.95;1.75;;;22.30;99.90;;;;;;5175800;27;20382;-84
2023/06/26 09:48:29;;;;;;;4.88;1.60;;;22.40;99.90;;;;;;5157946;27;20049;-85
2023/06/26 09:50:56;;;;;;;5.07;1.77;;;22.30;99.90;;;;;;5140412;27;20035;-84
2023/06/26 09:53:23;;;;;;;7.22;1.73;;;22.40;99.90;;;;;;5174969;27;20042;-85
2023/06/26 09:55:49;;;;;;;6.57;1.92;;;22.30;99.90;;;;;;5153776;27;20115;-85
2023/06/26 09:58:17;;;;;;;6.32;1.65;;;22.50;99.90;;;;;;5120030;27;20061;-85
2023/06/26 10:00:44;;;;;;;5.30;1.90;;;22.70;99.90;;;;;;5120141;27;20035;-85
2023/06/26 10:03:12;;;;;;;5.05;1.70;;;22.70;99.90;;;;;;5154132;27;20038;-85
2023/06/26 10:05:40;;;;;;;4.65;1.67;;;22.80;99.90;;;;;;5121174;27;20444;-85
2023/06/26 10:08:08;;;;;;;4.65;1.80;;;22.80;99.90;;;;;;5174457;27;20034;-84
2023/06/26 10:10:38;;;;;;;3.88;1.65;;;22.60;99.90;;;;;;5158084;27;20034;-85
2023/06/26 10:13:15;;;;;;;3.92;1.63;;;22.60;99.90;;;;;;5141417;27;20034;-85
2023/06/26 10:15:44;;;;;;;3.75;1.73;;;22.80;99.90;;;;;;5172820;27;20049;-85
2023/06/26 10:18:13;;;;;;;4.93;1.80;;;23.10;99.90;;;;;;5171719;27;20042;-85
2023/06/26 10:20:42;;;;;;;6.45;1.70;;;23.30;99.90;;;;;;5153545;27;20559;-84
2023/06/26 10:23:10;;;;;;;8.65;1.80;;;23.20;99.90;;;;;;5171127;27;20079;-84
2023/06/26 10:25:40;;;;;;;5.55;1.65;;;23.50;99.90;;;;;;5139767;27;20383;-83
2023/06/26 10:28:08;;;;;;;6.38;1.77;;;23.40;99.90;;;;;;5173929;27;20091;-82
2023/06/26 10:30:37;;;;;;;3.55;1.50;;;23.50;99.90;;;;;;5136209;27;20039;-83
2023/06/26 10:33:04;;;;;;;4.70;1.58;;;23.60;99.90;;;;;;5146667;27;20070;-83
2023/06/26 10:35:31;;;;;;;5.68;1.77;;;23.70;99.90;;;;;;5153931;27;20084;-82
2023/06/26 10:38:06;;;;;;;3.42;1.70;;;23.40;99.90;;;;;;5167703;27;20112;-81
2023/06/26 10:40:43;;;;;;;;;;;23.30;99.90;;;;;;5175354;27;20085;-81
2023/06/26 10:43:11;;;;;;;3.25;1.60;;;23.30;99.90;;;;;;5157216;27;19919;-82
2023/06/26 10:45:45;;;;;;;6.03;1.60;;;23.40;99.90;;;;;;5140079;27;20031;-83
2023/06/26 10:48:14;;;;;;;4.20;1.60;;;23.40;99.90;;;;;;5173739;27;20489;-87
2023/06/26 10:50:41;;;;;;;3.80;1.42;;;23.20;99.90;;;;;;5190557;27;20058;-83
2023/06/26 10:53:22;;;;;;;9.13;2.25;;;23.30;99.90;;;;;;5157226;27;20508;-84
2023/06/26 10:56:02;;;;;;;5.30;1.77;;;23.30;99.90;;;;;;5174296;27;20038;-83
2023/06/26 10:58:50;;;;;;;3.33;1.77;;;23.50;99.90;;;;;;5174308;27;20038;-83
2023/06/26 11:01:22;;;;;;;3.80;1.70;;;23.70;99.90;;;;;;5171361;27;20451;-84
2023/06/26 11:04:02;;;;;;;3.47;1.63;;;23.90;99.90;;;;;;5177338;27;20038;-84
2023/06/26 11:06:29;;;;;;;5.80;1.67;;;23.90;99.90;;;;;;5184345;27;20065;-83
2023/06/26 11:09:05;;;;;;;3.70;1.60;;;24.00;99.90;;;;;;5164587;27;20039;-82
2023/06/26 11:11:54;;;;;;;5.78;1.67;;;24.10;99.90;;;;;;5195349;27;20049;-83
2023/06/26 11:14:22;;;;;;;4.88;1.60;;;23.80;99.10;;;;;;5179851;27;20121;-83
2023/06/26 11:16:49;;;;;;;5.47;1.55;;;23.90;99.90;;;;;;5143313;27;20536;-83
2023/06/26 11:19:20;;;;;;;3.00;1.55;;;24.00;99.90;;;;;;5160740;27;20125;-84
2023/06/26 11:21:47;;;;;;;3.70;1.45;;;23.60;98.50;;;;;;5177554;27;20030;-84
2023/06/26 11:24:14;;;;;;;4.03;1.80;;;23.40;98.40;;;;;;5139692;27;20027;-83
2023/06/26 11:26:42;;;;;;;4.32;1.52;;;23.50;99.30;;;;;;5139720;27;20107;-84
2023/06/26 11:29:10;;;;;;;4.35;1.70;;;23.60;98.50;;;;;;5140350;27;20466;-83
2023/06/26 11:31:40;;;;;;;4.05;1.75;;;23.80;99.40;;;;;;5144196;27;20508;-83
2023/06/26 11:34:12;;;;;;;4.75;1.70;;;24.10;99.20;;;;;;5184634;27;20035;-84
2023/06/26 11:36:42;;;;;;;5.55;1.73;;;24.40;98.20;;;;;;5177667;27;20030;-84
2023/06/26 11:39:09;;;;;;;6.38;1.90;;;24.10;97.80;;;;;;5177549;27;20097;-83
2023/06/26 11:41:37;;;;;;;4.93;1.90;;;24.20;99.10;;;;;;5150944;27;20051;-83
2023/06/26 11:44:05;;;;;;;4.82;2.00;;;24.20;99.20;;;;;;5123390;28;20055;-83
2023/06/26 11:46:34;;;;;;;6.63;2.10;;;24.30;98.90;;;;;;5129342;27;20039;-83
2023/06/26 11:49:05;;;;;;;5.90;1.90;;;24.30;99.20;;;;;;5172338;27;20449;-83
2023/06/26 11:51:33;;;;;;;3.22;1.60;;;24.30;98.60;;;;;;5161183;27;20091;-83
2023/06/26 11:54:04;;;;;;;4.07;1.48;;;24.20;98.80;;;;;;5153114;27;20115;-83
2023/06/26 11:56:31;;;;;;;6.80;1.48;;;24.30;97.70;;;;;;5153281;27;20043;-83
2023/06/26 11:59:11;;;;;;;3.97;1.40;;;24.30;98.10;;;;;;5160911;27;20088;-83
2023/06/26 12:01:44;;;;;;;3.08;1.10;;;23.90;97.00;;;;;;5159336;27;20035;-83
2023/06/26 12:04:13;;;;;;;3.58;1.17;;;24.00;96.90;;;;;;5140667;27;20446;-84
2023/06/26 12:06:42;;;;;;;3.22;1.25;;;24.00;96.80;;;;;;5168741;27;20053;-83
2023/06/26 12:09:13;;;;;;;3.17;1.23;;;23.90;97.40;;;;;;5190538;27;20050;-84
2023/06/26 12:11:44;;;;;;;5.35;1.75;;;23.90;97.90;;;;;;5190767;27;20034;-85
2023/06/26 12:14:11;;;;;;;5.55;1.50;;;23.60;96.80;;;;;;5149741;27;20062;-85
2023/06/26 12:16:39;;;;;;;4.35;1.58;;;23.70;97.60;;;;;;5152524;27;20077;-84
2023/06/26 12:19:07;;;;;;;6.63;1.65;;;23.90;97.90;;;;;;5118778;27;20107;-85
2023/06/26 12:21:37;;;;;;;4.15;1.30;;;23.90;97.30;;;;;;5135446;27;20046;-84
2023/06/26 12:24:08;;;;;;;4.72;1.20;;;23.80;97.30;;;;;;5152336;27;20051;-85
2023/06/26 12:26:36;;;;;;;5.65;1.48;;;23.60;97.40;;;;;;5152304;27;20112;-84
2023/06/26 12:29:05;;;;;;;4.22;1.23;;;23.50;97.70;;;;;;5151688;27;20032;-84
2023/06/26 12:31:32;;;;;;;3.13;1.20;;;23.40;97.80;;;;;;5135288;27;20043;-84
2023/06/26 12:34:00;;;;;;;4.38;1.17;;;23.60;98.00;;;;;;5148375;28;20040;-84
2023/06/26 12:36:27;;;;;;;4.63;1.17;;;23.70;98.00;;;;;;5123643;28;20121;-84
2023/06/26 12:38:54;;;;;;;4.63;1.17;;;23.80;98.10;;;;;;5131608;28;20047;-86
2023/06/26 12:41:24;;;;;;;4.35;1.20;;;23.70;98.00;;;;;;5157561;27;20047;-85
2023/06/26 12:43:56;;;;;;;2.08;1.00;;;23.30;96.40;;;;;;5151888;27;20042;-85
2023/06/26 12:46:35;;;;;;;2.80;1.10;;;23.50;97.40;;;;;;5154415;27;20064;-85
2023/06/26 12:49:02;;;;;;;6.10;1.50;;;23.60;96.60;;;;;;5137989;27;20039;-84